MMVR/VER METAR and TAF weather

Enter ICAO airport designator
Station Type Date Time Source
MMVR METAR 2019/04/18 22:44 UTC NOAA

MMVR 182244Z 36026KT 3SM BLSA HZ FEW080 SCT220 29/23 A2967 RMK 8/038


Station Type Date Time Source
MMVR Decoded METAR 2019/04/18 22:44 UTC NOAA

Veracruz / Las Bajadas / General Heriberto Jara, Mexico (MMVR) 19-09N 096-11W
Apr 18, 2019 - 06:44 PM EDT / 2019.04.18 2244 UTC
Wind: from the N (360 degrees) at 30 MPH (26 KT):0
Visibility: 3 mile(s):0
Sky conditions: partly cloudy
Weather: blowing sand; haze
Temperature: 84 F (29 C)
Dew Point: 73 F (23 C)
Relative Humidity: 70%
Pressure (altimeter): 29.67 in. Hg (1004 hPa)
ob: MMVR 182244Z 36026KT 3SM BLSA HZ FEW080 SCT220 29/23 A2967 RMK 8/038
cycle: 22

Station Type Date Time Source
MMVR TAF 2019/04/18 18:43 UTC NOAA

TAF MMVR 181736Z 1818/1918 04005KT P6SM SCT020 TX33/1819Z TN22/1912Z
FM182000 36015G28KT P6SM SCT015 SCT200
FM190600 02015KT P6SM BKN020 BKN200
TEMPO 1906/1910 5SM RA BKN025CB
FM191200 02010KT P6SM SCT080 BKN200
FM191800 34018KT P6SM SCT200

Example: see airport list